FW7588 Weather Reports


time (UTC)temp
F
wind
direction
speed
knots
gust
knots
rain 1hr
in
rain 24hr
in
rain mn
in
humidity
%
barometer
mb
20220627213101 92 122 0.9 7.0 0.00 0.00 0.00 48 984.8
20220627211522 90 58 0.0 6.1 0.00 0.00 0.00 52 984.8
20220627210052 88 140 2.6 11.3 0.00 0.00 0.00 56 984.9
20220627204605 88 154 1.7 14.8 0.00 0.00 0.00 55 985.1
20220627203028 90 22 0.9 10.4 0.00 0.00 0.00 50 985.5
20220627201559 99 53 2.6 4.3 0.00 0.00 0.00 34 985.3
20220627200113 101 110 0.9 4.3 0.00 0.00 0.00 33 984.7
20220627194525 100 238 0.9 5.2 0.00 0.00 0.00 34 984.8
20220627193057 100 226 1.7 5.2 0.00 0.00 0.00 34 985.0
20220627191509 101 56 0.9 4.3 0.00 0.00 0.00 33 985.3
20220627190023 100 44 0.9 3.5 0.00 0.00 0.00 34 985.6
20220627184547 100 11 0.0 6.1 0.00 0.00 0.00 34 986.0
20220627183007 99 328 0.9 3.5 0.00 0.00 0.00 35 986.3
20220627181635 101 323 1.7 6.1 0.00 0.00 0.00 33 986.5
20220627180046 100 104 0.9 4.3 0.00 0.00 0.00 35 986.7
20220627174503 99 117 0.9 3.5 0.00 0.00 0.00 35 987.0
20220627173030 99 18 0.9 3.5 0.00 0.00 0.00 36 987.1
20220627171551 98 104 0.0 1.7 0.00 0.00 0.00 36 987.3
20220627170002 96 217 0.0 3.5 0.00 0.00 0.00 37 987.4
20220627164527 97 81 0.9 3.5 0.00 0.00 0.00 36 987.5
20220627163051 96 347 0.0 3.5 0.00 0.00 0.00 36 987.5
20220627161502 94 94 0.0 3.5 0.00 0.00 0.00 39 987.7
20220627160032 92 78 0.0 4.3 0.00 0.00 0.00 41 987.8
20220627154557 90 290 0.0 2.6 0.00 0.00 0.00 49 987.8
20220627153102 89 37 0.0 0.9 0.00 0.00 0.00 52 987.8
20220627151525 87 203 0.0 2.6 0.00 0.00 0.00 55 988.1
20220627150045 86 358 0.0 2.6 0.00 0.00 0.00 57 988.1
20220627144506 85 203 0.9 2.6 0.00 0.00 0.00 58 988.2
20220627143019 84 90 0.0 0.0 0.00 0.00 0.00 62 988.4
20220627141534 83 285 0.0 0.9 0.00 0.00 0.00 63 988.4
20220627140059 82 235 0.0 2.6 0.00 0.00 0.00 64 988.3
20220627134520 81 248 0.0 0.9 0.00 0.00 0.00 67 988.1
20220627133044 80 334 0.0 0.0 0.00 0.00 0.00 70 988.1
20220627131502 79 32 0.0 0.0 0.00 0.00 0.00 72 988.0
20220627130025 78 39 0.0 3.5 0.00 0.00 0.00 74 988.1
20220627124554 76 30 0.0 0.9 0.00 0.00 0.00 76 987.8
20220627123015 74 246 0.0 0.0 0.00 0.00 0.00 78 987.3
20220627121539 73 246 0.0 0.0 0.00 0.00 0.00 79 987.2
20220627120014 73 246 0.0 0.0 0.00 0.00 0.00 79 987.3
20220627114523 74 246 0.0 0.0 0.00 0.00 0.00 78 987.4
20220627113058 74 246 0.0 0.0 0.00 0.00 0.00 78 987.3
20220627111531 74 246 0.0 0.0 0.00 0.00 0.00 78 986.9
20220627110001 74 246 0.0 0.0 0.00 0.00 0.00 77 986.8
20220627104636 75 246 0.0 0.0 0.00 0.00 0.00 77 986.9
20220627103055 75 246 0.0 0.0 0.00 0.00 0.00 77 986.7
20220627101525 75 246 0.0 0.0 0.00 0.00 0.00 77 986.7
20220627100057 75 246 0.0 0.0 0.00 0.00 0.00 77 986.7
20220627094522 76 246 0.0 0.0 0.00 0.00 0.00 76 986.5
20220627093058 76 246 0.0 0.0 0.00 0.00 0.00 76 986.5
20220627091525 76 246 0.0 0.0 0.00 0.00 0.00 74 986.5
20220627090043 77 246 0.0 0.0 0.00 0.00 0.00 74 986.5
20220627084510 77 246 0.0 0.0 0.00 0.00 0.00 73 986.5
20220627083047 77 246 0.0 0.0 0.00 0.00 0.00 72 986.7
20220627081515 78 246 0.0 0.0 0.00 0.00 0.00 71 986.7
20220627080059 78 246 0.0 0.0 0.00 0.00 0.00 70 986.8
20220627074600 79 246 0.0 0.0 0.00 0.00 0.00 68 986.9
20220627073021 79 246 0.0 0.0 0.00 0.00 0.00 68 987.0
20220627071600 79 246 0.0 0.0 0.00 0.00 0.00 67 987.1
20220627070021 80 246 0.0 0.0 0.00 0.00 0.00 65 987.2
20220627064542 80 246 0.0 0.0 0.00 0.00 0.00 64 987.2
20220627063016 81 246 0.0 0.0 0.00 0.00 0.00 62 987.3
20220627061537 82 246 0.0 0.0 0.00 0.00 0.00 60 987.2
20220627060005 82 254 0.0 0.0 0.00 0.00 0.00 59 987.2
20220627054533 83 257 0.0 0.9 0.00 0.00 0.00 58 987.1
20220627053058 84 297 0.0 2.6 0.00 0.00 0.00 56 987.0
20220627051511 84 112 0.0 0.9 0.00 0.00 0.00 54 986.9
20220627050054 85 115 0.0 0.9 0.00 0.00 0.00 53 986.9
20220627044555 85 104 0.0 1.7 0.00 0.00 0.00 53 986.6
20220627043016 85 123 0.0 1.7 0.00 0.00 0.00 54 986.6
20220627041529 86 126 0.9 2.6 0.00 0.00 0.00 55 986.4
20220627040155 86 163 0.0 0.9 0.00 0.00 0.00 59 986.1
20220627034521 87 152 0.0 1.7 0.00 0.00 0.00 59 985.8
20220627033045 87 108 0.0 1.7 0.00 0.00 0.00 57 985.6
20220627031506 87 98 0.0 2.6 0.00 0.00 0.00 56 985.4
20220627030045 88 135 0.9 3.5 0.00 0.00 0.00 55 985.1
20220627024600 89 122 0.9 3.5 0.00 0.00 0.00 53 984.9
20220627023003 90 143 0.9 2.6 0.00 0.00 0.00 53 984.5
20220627021530 91 116 1.7 3.5 0.00 0.00 0.00 51 984.2
20220627020050 93 138 0.9 1.7 0.00 0.00 0.00 37 983.9
20220627014512 94 94 0.0 0.9 0.00 0.00 0.00 36 983.7
20220627013029 94 101 0.9 2.6 0.00 0.00 0.00 34 983.5
20220627011556 95 134 0.9 3.5 0.00 0.00 0.00 35 983.4
20220627010006 96 323 0.0 2.6 0.00 0.00 0.00 34 983.5
20220627004540 96 108 0.9 2.6 0.00 0.00 0.00 33 983.4
20220627003043 97 110 0.0 3.5 0.00 0.00 0.00 33 983.2
20220627001604 99 129 0.9 2.6 0.00 0.00 0.00 31 983.3
20220627000014 99 153 0.9 5.2 0.00 0.00 0.00 32 983.3
20220626234547 99 80 0.9 5.2 0.00 0.00 0.00 32 983.3
20220626233103 100 127 0.9 2.6 0.00 0.00 0.00 31 983.2
20220626231513 99 110 1.7 3.5 0.00 0.00 0.00 33 983.2
20220626230042 99 116 0.9 3.5 0.00 0.00 0.00 33 983.4
20220626224600 100 100 0.9 5.2 0.00 0.00 0.00 31 983.5
20220626223023 98 91 0.9 3.5 0.00 0.00 0.00 35 983.7
20220626221535 100 146 1.7 4.3 0.00 0.00 0.00 33 983.8
20220626220100 100 132 0.9 3.5 0.00 0.00 0.00 34 984.0
20220626214510 99 70 0.0 3.5 0.00 0.00 0.00 34 984.1